Terminal Aerodrome Forecast
Issued by NWS

Home | Current Version | Previous Version | Text Only | Print | Product List | Glossary Off
Versions: 1 2 3 4 5 6 7 8 9 10 11 12 13

000
FTUS43 KFGF 022300
TAFBJI
TAF
KBJI 022332Z 0300/0324 18014G21KT P6SM SCT250
     FM030200 18007KT P6SM VCSH SCT100 BKN200
     FM030700 16005KT P6SM BKN120
     FM031600 31014G21KT P6SM SCT120=

USA.gov is the U.S. government's official web portal to all federal, state and local government web resources and services.